ADDS METAR Data INFO
IDs: Format: Raw Decoded Include TAF

Data at: 1117 UTC 21 Feb 2018

PAOM 201453Z AUTO 20025G34KT 8SM OVC034 M01/M03 A3005 RMK AO2 PK WND 21036/1434 SLP177 T10111033 53022 TSNO $
PAOM 201353Z AUTO 20021G31KT 7SM OVC037 M02/M03 A3003 RMK AO2 PK WND 19035/1258 SLP170 T10171033 TSNO $
PAOM 201253Z AUTO 19024G34KT 7SM OVC033 M01/M03 A3000 RMK AO2 PK WND 18034/1252 SLP160 T10111033 TSNO $
PAOM 201153Z AUTO 19022G29KT 8SM SCT034 OVC100 M01/M03 A2999 RMK AO2 PK WND 19030/1129 SLP155 70021 T10111033 11006 21017 53015 TSNO $
PAOM 201053Z AUTO 19020G28KT 8SM OVC041 M01/M03 A2997 RMK AO2 PK WND 19029/1043 SLP148 T10111033 TSNO $
PAOM 200953Z AUTO 19019G28KT 8SM OVC038 M01/M03 A2996 RMK AO2 PK WND 19028/0918 SLP144 T10111028 TSNO $
PAOM 200934Z AUTO 19019KT 7SM OVC032 M01/M03 A2995 RMK AO2 PK WND 19028/0918 T10111028 TSNO $
PAOM 200853Z AUTO 18017KT 7SM BKN029 OVC060 M01/M03 A2994 RMK AO2 PK WND 18026/0838 SLP140 T10111028 400001017 51025 TSNO $
PAOM 200753Z AUTO 18017KT 7SM CLR M01/M02 A2993 RMK SLP134 T10111022 TSNO $ VIA AUTODIAL
PAOM 200653Z 17013KT 6SM BR FEW020 M01/M02 A2990 RMK SLP125 T10111017 $ VIA AUTODIAL
PAOM 200643Z 18015KT 6SM BR SCT020 M01/M02 A2990 RMK AO2 T10111017 $
PAOM 200553Z 18016KT 6SM BR OVC026 M01/M01 A2987 RMK AO2 SLP115 60004 I6000 T10061011 10000 21006 51020 $
PAOM 200531Z 18017KT 6SM BR SCT008 OVC023 M01/M01 A2987 RMK AO2 CIG 018 NE T10061011 $
PAOM 200453Z 17015KT 6SM BR OVC007 00/M01 A2986 RMK AO2 FZRAE11SNB17E46 SLP110 P0000 I1000 T00001006 $
PAOM 200417Z 17014KT 5SM -SN BR OVC005 M01/M01 A2984 RMK AO2 FZRAE11SNB17 P0000 I1000 T10061006 $
PAOM 200353Z 17015KT 3SM -FZRA BR OVC004 M01/M01 A2983 RMK PK WND 17030/0300 SLP101 P0001 I1000 T10061006 $ VIA AUTODIAL
PAOM 200253Z 17021G30KT 4SM -FZRA BR OVC004 00/00 A2981 RMK PK WND 16030/0245 SLP095 P0000 60003 I1000 I3000 T00000000 53001 $ VIA AUTODIAL
PAOM 200247Z 16021G30KT 3SM -FZRA BR OVC004 00/00 A2981 RMK AO2 PK WND 16030/0245 P0000 I1000 $
PAOM 200234Z 16021G28KT 1 3/4SM -FZRA BR OVC005 00/00 A2981 RMK AO2 PK WND 16028/0230 VIS 1V3 P0000 I1000 T00000000 $
PAOM 200153Z 15020G27KT 3SM -FZRA BR OVC005 00/00 A2980 RMK AO2 PK WND 15030/0102 FZRAB26SNE26PLB02E15 SLP091 P0002 I1000 T00000000 $
PAOM 200132Z 15021G27KT 1SM R28/4000VP6000FT -FZRA BR OVC005 00/M01 A2980 RMK AO2 PK WND 15030/0102 FZRAB26SNE26PLB02E15 P0001 I1000 T00001006 $
PAOM 200121Z 15021G29KT 10SM R28/5000VP6000FT -SN OVC005 00/M01 A2980 RMK AO2 PK WND 15030/0102 PLB02E15 P0001 T00001006 $
PAOM 200111Z 15022G30KT 3SM -SNPL BR OVC006 00/M01 A2980 RMK AO2 PK WND 15030/0102 PLB02 P0001 T00001006 $
PAOM 200108Z 16021G30KT 1 3/4SM R28/5500VP6000FT -SNPL BR OVC007 00/M01 A2980 RMK AO2 PK WND 15030/0102 PLB02 P0001 T00001006 $
PAOM 200053Z 16023G33KT 1 1/4SM R28/6000VP6000FT -SN BR OVC006 00/M01 A2980 RMK AO2 PK WND 15033/0049 SLP091 P0001 I1000 T00001006 $
PAOM 200047Z 15024G30KT 1 1/2SM -SN BR OVC006 00/M01 A2980 RMK AO2 PK WND 15030/0004 FZRAE46SNE20B21GSB46E47 P0001 I1000 $
PAOM 200022Z 15023G29KT 1 3/4SM -FZRASN OVC007 00/M01 A2980 RMK AO2 PK WND 15030/0004 SNE20B21 P0001 I1000 T00001006 $
PAOM 200020Z COR 15023G29KT 1 3/4SM -FZRASN BLSN BKN006 OVC010 00/M01 A2980 RMK AO2 PK WND 15030/0004 FZRAE20SNE20 P0001 I1000 T00001006 $
PAOM 192353Z 15021G30KT 3/4SM R28/4500VP6000FT -FZRASN OVC006 M01/M01 A2981 RMK AO2 PK WND 14031/2323 FZDZE2254FZRAB02SNB2254 SLP094 P0004 60010 I1000 I6001 T10061006 10000 21011 56022 $
PAOM 192319Z 14022G30KT 3/4SM R28/3500V6000FT -FZRASN OVC007 M01/M01 A2982 RMK AO2 PK WND 14030/2315 FZDZE2254FZRAB02SNB2254 P0003 I1000 T10061006 $